< < Back
Terminal Aerodrome Forecast


Current Version              Previous Versions:   1  2  3  4  5  6  7  8  9  

Terminal Aerodrome Forecast

339
FTUS44 KBMX 291500 AAA
TAFTCL
TAF AMD
KTCL 291520Z 2915/3012 30003KT P6SM OVC008
     FM291700 35007KT P6SM OVC015
     FM292000 34008KT P6SM SKC=



Latest METAR

697
SAUS70 KWBC 301400 RRJ
MTRTCL
METAR KTCL 301353Z 35003KT 10SM CLR 11/07 A3016 RMK AO2 SLP212
T01060072


USA.gov is the U.S. government's official web portal to all federal, state and local government web resources and services.